createdAt,value
2017-08-28T00:01:12.292Z,0.00
2017-08-28T00:02:36.519Z,0.00
2017-08-28T00:05:58.809Z,0.00
2017-08-28T00:07:33.325Z,0.00
2017-08-28T00:08:48.538Z,0.00
2017-08-28T00:09:34.202Z,0.00
2017-08-28T00:11:27.414Z,0.00
2017-08-28T00:12:27.855Z,0.00
2017-08-28T00:13:28.294Z,0.00
2017-08-28T00:14:43.676Z,0.00
2017-08-28T00:15:29.209Z,0.00
2017-08-28T00:17:22.395Z,0.00
2017-08-28T00:18:22.842Z,0.00
2017-08-28T00:19:23.293Z,0.00
2017-08-28T00:21:16.502Z,0.00
2017-08-28T00:22:16.944Z,0.00
2017-08-28T00:23:17.384Z,0.00
2017-08-28T00:24:17.839Z,0.00
2017-08-28T00:26:11.043Z,0.00
2017-08-28T00:27:11.482Z,0.00
2017-08-28T00:28:11.934Z,0.00
2017-08-28T00:29:12.363Z,0.00
2017-08-28T00:31:06.579Z,0.00
2017-08-28T00:32:59.786Z,0.00
2017-08-28T00:34:00.239Z,0.00
2017-08-28T00:35:00.669Z,0.00
2017-08-28T00:36:01.103Z,0.00
2017-08-28T00:37:59.617Z,0.00
2017-08-28T00:38:54.795Z,0.00
2017-08-28T00:40:16.368Z,0.00
2017-08-28T00:40:55.640Z,0.00
2017-08-28T00:41:56.087Z,0.00
2017-08-28T00:43:49.298Z,0.00
2017-08-28T00:44:49.746Z,0.00
2017-08-28T00:45:50.181Z,0.00
2017-08-28T00:46:50.620Z,0.00
2017-08-28T00:47:51.059Z,0.00
2017-08-28T00:49:45.259Z,0.00
2017-08-28T00:51:38.485Z,0.00
2017-08-28T00:53:31.703Z,0.00
2017-08-28T00:54:32.169Z,0.00
2017-08-28T00:55:32.584Z,0.00
2017-08-28T00:56:33.028Z,0.00
2017-08-28T00:58:26.299Z,0.00
2017-08-28T00:59:26.782Z,0.00
2017-08-28T01:00:27.200Z,0.00
2017-08-28T01:01:30.494Z,0.00
2017-08-28T01:02:28.060Z,0.00
2017-08-28T01:03:28.493Z,0.00
2017-08-28T01:06:02.074Z,0.00
2017-08-28T01:07:02.484Z,0.00
2017-08-28T01:08:02.938Z,0.00
2017-08-28T01:09:59.433Z,0.00
2017-08-28T01:10:56.668Z,0.00
2017-08-28T01:12:49.917Z,0.00
2017-08-28T01:13:50.423Z,0.00
2017-08-28T01:14:50.767Z,0.00
2017-08-28T01:15:51.197Z,0.00
2017-08-28T01:17:44.427Z,0.00
2017-08-28T01:18:44.869Z,0.00
2017-08-28T01:19:45.308Z,0.00
2017-08-28T01:20:45.790Z,0.00
2017-08-28T01:22:38.962Z,0.00
2017-08-28T01:23:39.401Z,0.00
2017-08-28T01:24:39.836Z,0.00
2017-08-28T01:25:40.274Z,0.00
2017-08-28T01:27:34.526Z,0.00
2017-08-28T01:29:28.690Z,0.00
2017-08-28T01:30:29.144Z,0.00
2017-08-28T01:31:29.575Z,0.00
2017-08-28T01:33:22.795Z,0.00
2017-08-28T01:35:20.304Z,0.00
2017-08-28T01:36:17.447Z,0.00
2017-08-28T01:37:17.876Z,0.00
2017-08-28T01:38:18.313Z,0.00
2017-08-28T01:42:24.945Z,0.00
2017-08-28T01:44:18.192Z,0.00
2017-08-28T01:47:44.493Z,0.00
2017-08-28T01:48:44.931Z,0.00
2017-08-28T01:49:45.370Z,0.00
2017-08-28T01:50:45.806Z,0.00
2017-08-28T01:51:46.243Z,0.00
2017-08-28T01:53:10.987Z,0.00
2017-08-28T01:54:39.891Z,0.00
2017-08-28T01:55:40.338Z,0.00
2017-08-28T01:56:40.775Z,0.00
2017-08-28T01:57:41.209Z,0.00
2017-08-28T01:58:41.641Z,0.00
2017-08-28T01:59:48.649Z,0.00
2017-08-28T02:00:42.515Z,0.00
2017-08-28T02:02:35.792Z,0.00
2017-08-28T02:04:29.032Z,0.00
2017-08-28T02:06:22.234Z,0.00
2017-08-28T02:08:15.467Z,0.00
2017-08-28T02:09:15.896Z,0.00
2017-08-28T02:10:16.337Z,0.00
2017-08-28T02:11:16.774Z,0.00
2017-08-28T02:12:17.211Z,0.00
2017-08-28T02:13:17.637Z,0.00
2017-08-28T02:15:10.863Z,0.00
2017-08-28T02:16:11.304Z,0.00
2017-08-28T02:17:11.738Z,0.00
2017-08-28T02:19:04.958Z,0.00
2017-08-28T02:20:05.405Z,0.00
2017-08-28T02:21:05.837Z,0.00
2017-08-28T02:22:06.270Z,0.00
2017-08-28T02:23:59.478Z,0.00
2017-08-28T02:24:59.931Z,0.00
2017-08-28T02:26:00.366Z,0.00
2017-08-28T02:27:00.806Z,0.00
2017-08-28T02:29:08.305Z,0.00
2017-08-28T02:30:47.278Z,0.00
2017-08-28T02:31:47.685Z,0.00
2017-08-28T02:32:48.119Z,0.00
2017-08-28T02:33:48.549Z,0.00
2017-08-28T02:34:49.038Z,0.00
2017-08-28T02:36:42.210Z,0.00
2017-08-28T02:37:42.654Z,0.00
2017-08-28T02:38:43.087Z,0.00
2017-08-28T02:39:43.527Z,0.00
2017-08-28T02:42:00.518Z,0.00
2017-08-28T02:42:59.357Z,0.00
2017-08-28T02:43:41.502Z,0.00
2017-08-28T02:44:41.994Z,0.00
2017-08-28T02:45:39.478Z,0.00
2017-08-28T02:47:01.088Z,0.00
2017-08-28T02:47:40.353Z,0.00
2017-08-28T02:48:40.778Z,0.00
2017-08-28T02:50:18.936Z,0.00
2017-08-28T02:50:41.653Z,0.00
2017-08-28T02:51:42.093Z,0.00
2017-08-28T02:55:09.482Z,0.00
2017-08-28T02:56:09.906Z,0.00
2017-08-28T03:00:08.014Z,0.00
2017-08-28T03:00:51.476Z,0.00
2017-08-28T03:01:37.104Z,0.00
2017-08-28T03:04:10.632Z,0.00
2017-08-28T03:07:15.453Z,0.00
2017-08-28T03:07:44.628Z,0.00
2017-08-28T03:09:20.935Z,0.00
2017-08-28T03:09:45.504Z,0.00
2017-08-28T03:11:39.715Z,0.00
2017-08-28T03:13:32.926Z,0.00
2017-08-28T03:14:33.376Z,0.00
2017-08-28T03:15:55.697Z,0.00
2017-08-28T03:17:10.194Z,0.00
2017-08-28T03:17:34.671Z,0.00
2017-08-28T03:18:35.117Z,0.00
2017-08-28T03:20:28.365Z,0.00
2017-08-28T03:22:21.588Z,0.00
2017-08-28T03:23:21.990Z,0.00
2017-08-28T03:24:22.428Z,0.00
2017-08-28T03:30:17.592Z,0.00
2017-08-28T03:31:06.791Z,0.00
2017-08-28T03:36:16.052Z,0.00
2017-08-28T03:38:01.597Z,0.00
2017-08-28T03:39:02.058Z,0.00
2017-08-28T03:40:02.476Z,0.00
2017-08-28T03:41:55.686Z,0.00
2017-08-28T03:44:13.178Z,0.00
2017-08-28T03:44:49.347Z,0.00
2017-08-28T03:45:49.786Z,0.00
2017-08-28T03:46:50.232Z,0.00
2017-08-28T03:48:43.426Z,0.00
2017-08-28T03:49:46.688Z,0.00
2017-08-28T03:50:44.313Z,0.00
2017-08-28T03:51:44.739Z,0.00
2017-08-28T03:52:45.172Z,0.00
2017-08-28T03:54:38.405Z,0.00
2017-08-28T03:55:38.834Z,0.00
2017-08-28T03:56:39.273Z,0.00
2017-08-28T03:58:32.493Z,0.00
2017-08-28T04:00:00.753Z,0.00
2017-08-28T04:00:33.359Z,0.00
2017-08-28T04:01:33.791Z,0.00
2017-08-28T04:03:27.997Z,0.00
2017-08-28T04:04:28.435Z,5.63
2017-08-28T04:05:28.868Z,5.63
2017-08-28T04:06:29.306Z,5.63
2017-08-28T04:07:29.745Z,5.63
2017-08-28T04:09:22.957Z,5.63
2017-08-28T04:10:23.396Z,11.25
2017-08-28T04:11:23.833Z,11.25
2017-08-28T04:12:24.284Z,11.25
2017-08-28T04:14:17.679Z,11.25
2017-08-28T04:15:17.951Z,11.25
2017-08-28T04:16:18.407Z,16.88
2017-08-28T04:17:18.825Z,16.88
2017-08-28T04:18:19.261Z,16.88
2017-08-28T04:19:19.697Z,16.88
2017-08-28T04:20:20.136Z,22.50
2017-08-28T04:21:20.568Z,22.50
2017-08-28T04:23:13.777Z,22.50
2017-08-28T04:24:14.215Z,28.13
2017-08-28T04:25:14.648Z,28.13
2017-08-28T04:26:15.083Z,28.13
2017-08-28T04:27:15.518Z,33.75
2017-08-28T04:29:08.736Z,33.75
2017-08-28T04:30:09.171Z,33.75
2017-08-28T04:31:09.612Z,39.38
2017-08-28T04:32:10.038Z,39.38
2017-08-28T04:33:10.473Z,39.38
2017-08-28T04:34:10.919Z,45.00
2017-08-28T04:36:04.130Z,45.00
2017-08-28T04:37:04.575Z,45.00
2017-08-28T04:38:05.009Z,50.63
2017-08-28T04:39:05.442Z,50.63
2017-08-28T04:40:05.872Z,50.63
2017-08-28T04:41:59.118Z,56.25
2017-08-28T04:42:59.535Z,56.25
2017-08-28T04:43:59.986Z,56.25
2017-08-28T04:45:00.406Z,56.25
2017-08-28T04:48:28.482Z,61.88
2017-08-28T04:50:19.929Z,61.88
2017-08-28T04:51:20.376Z,67.50
2017-08-28T04:52:20.813Z,67.50
2017-08-28T04:53:21.243Z,67.50
2017-08-28T04:54:21.679Z,67.50
2017-08-28T04:55:22.155Z,73.13
2017-08-28T04:58:49.571Z,78.75
2017-08-28T04:59:49.986Z,78.75
2017-08-28T05:01:43.201Z,78.75
2017-08-28T05:02:43.639Z,84.38
2017-08-28T05:03:44.073Z,84.38
2017-08-28T05:04:44.510Z,84.38
2017-08-28T05:06:37.727Z,90.00
2017-08-28T05:07:38.173Z,90.00
2017-08-28T05:08:38.621Z,95.63
2017-08-28T05:10:32.824Z,95.63
2017-08-28T05:11:33.250Z,95.63
2017-08-28T05:12:33.688Z,101.25
2017-08-28T05:13:34.125Z,101.25
2017-08-28T05:15:31.302Z,106.88
2017-08-28T05:16:31.754Z,106.88
2017-08-28T05:18:24.979Z,112.50
2017-08-28T05:19:25.479Z,112.50
2017-08-28T05:20:25.859Z,112.50
2017-08-28T05:22:19.063Z,118.13
2017-08-28T05:24:12.318Z,118.13
2017-08-28T05:26:05.502Z,123.75
2017-08-28T05:27:05.957Z,123.75
2017-08-28T05:28:06.387Z,123.75
2017-08-28T05:29:06.821Z,123.75
2017-08-28T05:30:07.256Z,129.38
2017-08-28T05:31:07.686Z,129.38
2017-08-28T05:32:08.124Z,129.38
2017-08-28T05:34:01.342Z,135.00
2017-08-28T05:35:01.789Z,140.63
2017-08-28T05:36:02.222Z,140.63
2017-08-28T05:37:02.660Z,146.25
2017-08-28T05:38:55.875Z,151.88
2017-08-28T05:39:56.333Z,151.88
2017-08-28T05:40:56.754Z,151.88
2017-08-28T05:41:57.201Z,157.50
2017-08-28T05:43:51.395Z,157.50
2017-08-28T05:45:44.631Z,163.13
2017-08-28T05:46:45.059Z,163.13
2017-08-28T05:47:45.494Z,163.13
2017-08-28T05:48:46.005Z,168.75
2017-08-28T05:50:39.166Z,168.75
2017-08-28T05:51:39.590Z,174.38
2017-08-28T05:52:40.082Z,174.38
2017-08-28T05:53:40.469Z,174.38
2017-08-28T05:55:34.684Z,180.00
2017-08-28T05:56:35.108Z,180.00
2017-08-28T05:57:35.549Z,185.63
2017-08-28T05:58:35.981Z,185.63
2017-08-28T05:59:36.421Z,191.25
2017-08-28T06:00:36.849Z,185.63
2017-08-28T06:01:37.290Z,191.25
2017-08-28T06:02:37.726Z,191.25
2017-08-28T06:04:30.942Z,196.88
2017-08-28T06:05:31.383Z,202.50
2017-08-28T06:06:31.830Z,202.50
2017-08-28T06:07:39.197Z,208.13
2017-08-28T06:09:25.501Z,208.13
2017-08-28T06:10:25.926Z,213.75
2017-08-28T06:11:26.372Z,213.75
2017-08-28T06:13:19.582Z,225.00
2017-08-28T06:14:20.029Z,225.00
2017-08-28T06:15:20.464Z,230.63
2017-08-28T06:16:20.906Z,236.25
2017-08-28T06:17:21.333Z,236.25
2017-08-28T06:18:21.767Z,241.88
2017-08-28T06:19:22.210Z,241.88
2017-08-28T06:20:22.645Z,241.88
2017-08-28T06:21:23.081Z,241.88
2017-08-28T06:22:23.519Z,241.88
2017-08-28T06:23:23.959Z,247.50
2017-08-28T06:24:24.392Z,247.50
2017-08-28T06:26:17.623Z,253.13
2017-08-28T06:27:18.056Z,253.13
2017-08-28T06:28:18.491Z,258.75
2017-08-28T06:29:18.926Z,258.75
2017-08-28T06:30:19.371Z,258.75
2017-08-28T06:31:19.796Z,264.38
2017-08-28T06:32:20.236Z,264.38
2017-08-28T06:34:13.458Z,275.63
2017-08-28T06:35:13.901Z,275.63
2017-08-28T06:36:14.348Z,281.25
2017-08-28T06:37:14.784Z,281.25
2017-08-28T06:38:15.216Z,286.88
2017-08-28T06:40:08.435Z,286.88
2017-08-28T06:41:08.879Z,286.88
2017-08-28T06:42:09.318Z,292.50
2017-08-28T06:43:09.755Z,292.50
2017-08-28T06:44:10.192Z,298.13
2017-08-28T06:46:03.417Z,298.13
2017-08-28T06:47:03.860Z,303.75
2017-08-28T06:48:04.297Z,303.75
2017-08-28T06:49:04.739Z,303.75
2017-08-28T06:50:05.171Z,309.38
2017-08-28T06:51:58.387Z,309.38
2017-08-28T06:52:58.833Z,309.38
2017-08-28T06:53:59.271Z,315.00
2017-08-28T06:54:59.712Z,315.00
2017-08-28T06:56:52.924Z,320.63
2017-08-28T06:57:53.372Z,326.25
2017-08-28T06:58:53.813Z,331.88
2017-08-28T06:59:54.247Z,331.88
2017-08-28T07:00:54.685Z,331.88
2017-08-28T07:01:55.127Z,331.88
2017-08-28T07:03:48.349Z,337.50
2017-08-28T07:04:48.798Z,337.50
2017-08-28T07:05:49.237Z,343.13
2017-08-28T07:06:49.678Z,348.75
2017-08-28T07:08:43.885Z,360.00
2017-08-28T07:09:44.329Z,365.63
2017-08-28T07:10:44.765Z,365.63
2017-08-28T07:11:45.208Z,371.25
2017-08-28T07:12:52.156Z,376.88
2017-08-28T07:14:38.861Z,382.50
2017-08-28T07:15:39.317Z,382.50
2017-08-28T07:16:39.757Z,388.13
2017-08-28T07:17:40.194Z,393.75
2017-08-28T07:18:40.633Z,399.38
2017-08-28T07:20:33.854Z,393.75
2017-08-28T07:21:34.300Z,405.00
2017-08-28T07:22:34.741Z,410.63
2017-08-28T07:23:35.184Z,421.88
2017-08-28T07:25:28.407Z,427.50
2017-08-28T07:26:28.851Z,438.75
2017-08-28T07:27:29.292Z,444.38
2017-08-28T07:28:29.749Z,461.25
2017-08-28T07:30:22.964Z,483.75
2017-08-28T07:31:23.408Z,506.25
2017-08-28T07:32:23.856Z,523.13
2017-08-28T07:34:17.088Z,545.63
2017-08-28T07:35:17.537Z,551.25
2017-08-28T07:36:17.970Z,556.88
2017-08-28T07:37:18.412Z,669.38
2017-08-28T07:39:11.640Z,2418.75
2017-08-28T07:40:12.094Z,2458.13
2017-08-28T07:41:12.542Z,2446.88
2017-08-28T07:43:05.784Z,2199.38
2017-08-28T07:44:06.220Z,2266.88
2017-08-28T07:45:06.670Z,2368.13
2017-08-28T07:46:07.112Z,2306.25
2017-08-28T07:47:07.569Z,2306.25
2017-08-28T07:48:08.015Z,2317.50
2017-08-28T07:49:08.456Z,2373.75
2017-08-28T07:50:23.520Z,2109.38
2017-08-28T07:51:09.357Z,1996.88
2017-08-28T07:52:09.807Z,2306.25
2017-08-28T07:53:10.254Z,2475.00
2017-08-28T07:54:10.713Z,2536.88
2017-08-28T07:55:11.161Z,2503.13
2017-08-28T07:56:11.615Z,2401.88
2017-08-28T07:57:12.070Z,2317.50
2017-08-28T07:58:12.527Z,2283.75
2017-08-28T08:00:06.778Z,2345.63
2017-08-28T08:02:00.023Z,2559.38
2017-08-28T08:03:00.502Z,2660.63
2017-08-28T08:04:00.945Z,2733.75
2017-08-28T08:05:01.405Z,2761.88
2017-08-28T08:06:54.681Z,2705.63
2017-08-28T08:08:47.942Z,2581.88
2017-08-28T08:10:41.200Z,2655.00
2017-08-28T08:11:41.667Z,2452.50
2017-08-28T08:12:42.130Z,2278.13
2017-08-28T08:13:42.587Z,2289.38
2017-08-28T08:14:43.051Z,562.50
2017-08-28T08:15:43.509Z,1878.75
2017-08-28T08:17:36.771Z,2576.25
2017-08-28T08:18:37.241Z,2745.00
2017-08-28T08:19:37.707Z,2846.25
2017-08-28T08:20:38.168Z,928.13
2017-08-28T08:22:31.485Z,540.00
2017-08-28T08:24:24.779Z,523.13
2017-08-28T08:25:25.234Z,551.25
2017-08-28T08:26:25.697Z,540.00
2017-08-28T08:28:18.956Z,551.25
2017-08-28T08:29:19.423Z,568.13
2017-08-28T08:30:19.883Z,1113.75
2017-08-28T08:31:20.347Z,1220.63
2017-08-28T08:33:13.598Z,1636.88
2017-08-28T08:34:14.054Z,2469.38
2017-08-28T08:35:14.506Z,2491.88
2017-08-28T08:36:14.969Z,2728.13
2017-08-28T08:37:15.415Z,2840.63
2017-08-28T08:38:15.871Z,2587.50
2017-08-28T08:39:16.343Z,2401.88
2017-08-28T08:41:09.593Z,2385.00
2017-08-28T08:42:10.058Z,2323.13
2017-08-28T08:43:10.518Z,2801.25
2017-08-28T08:44:10.986Z,1113.75
2017-08-28T08:46:04.243Z,573.75
2017-08-28T08:47:04.717Z,523.13
2017-08-28T08:48:05.172Z,483.75
2017-08-28T08:49:05.629Z,466.88
2017-08-28T08:50:06.090Z,438.75
2017-08-28T08:51:06.553Z,416.25
2017-08-28T08:52:07.008Z,393.75
2017-08-28T08:54:00.753Z,371.25
2017-08-28T08:55:54.004Z,376.88
2017-08-28T08:56:54.472Z,489.38
2017-08-28T08:57:54.947Z,495.00
2017-08-28T08:58:55.378Z,556.88
2017-08-28T08:59:55.830Z,416.25
2017-08-28T09:01:52.338Z,421.88
2017-08-28T09:03:42.354Z,511.88
2017-08-28T09:04:42.806Z,585.00
2017-08-28T09:06:57.197Z,669.38
2017-08-28T09:08:29.303Z,759.38
2017-08-28T09:09:29.781Z,2182.50
2017-08-28T09:10:30.216Z,1496.25
2017-08-28T09:11:30.681Z,2351.25
2017-08-28T09:12:31.103Z,2705.63
2017-08-28T09:13:31.560Z,1603.13
2017-08-28T09:15:24.922Z,3273.75
2017-08-28T09:16:25.379Z,2593.13
2017-08-28T09:17:25.831Z,2446.88
2017-08-28T09:18:26.285Z,3470.63
2017-08-28T09:19:26.737Z,3465.00
2017-08-28T09:20:27.191Z,3420.00
2017-08-28T09:22:20.463Z,3121.88
2017-08-28T09:24:14.707Z,2036.25
2017-08-28T09:26:07.986Z,736.88
2017-08-28T09:27:08.442Z,1265.63
2017-08-28T09:28:08.903Z,3813.75
2017-08-28T09:29:09.366Z,3836.25
2017-08-28T09:30:10.734Z,3684.38
2017-08-28T09:31:10.293Z,3515.63
2017-08-28T09:33:03.546Z,3526.88
2017-08-28T09:34:04.012Z,3645.00
2017-08-28T09:35:04.475Z,3757.50
2017-08-28T09:36:04.940Z,3268.13
2017-08-28T09:37:58.212Z,3273.75
2017-08-28T09:38:58.693Z,3768.75
2017-08-28T09:39:59.153Z,3847.50
2017-08-28T09:40:59.613Z,3841.88
2017-08-28T09:42:00.079Z,1141.88
2017-08-28T09:43:54.338Z,736.88
2017-08-28T09:45:47.613Z,883.13
2017-08-28T09:46:48.088Z,596.25
2017-08-28T09:47:48.566Z,691.88
2017-08-28T09:49:41.820Z,3268.13
2017-08-28T09:50:42.311Z,511.88
2017-08-28T09:51:42.756Z,551.25
2017-08-28T09:52:43.223Z,703.13
2017-08-28T09:53:43.685Z,2857.50
2017-08-28T09:54:44.147Z,838.13
2017-08-28T09:56:37.399Z,770.63
2017-08-28T09:57:37.870Z,1091.25
2017-08-28T09:58:38.341Z,933.75
2017-08-28T09:59:38.787Z,1468.13
2017-08-28T10:00:39.254Z,2806.88
2017-08-28T10:01:39.711Z,3560.63
2017-08-28T10:02:40.168Z,3588.75
2017-08-28T10:03:40.635Z,3245.63
2017-08-28T10:05:36.886Z,3330.00
2017-08-28T10:06:37.331Z,3448.13
2017-08-28T10:08:30.638Z,3431.25
2017-08-28T10:09:31.085Z,3363.75
2017-08-28T10:10:31.548Z,3386.25
2017-08-28T10:12:24.816Z,3380.63
2017-08-28T10:13:25.289Z,2671.88
2017-08-28T10:14:25.763Z,2846.25
2017-08-28T10:15:26.222Z,3448.13
2017-08-28T10:16:41.554Z,3560.63
2017-08-28T10:17:27.157Z,3594.38
2017-08-28T10:18:27.635Z,3532.50
2017-08-28T10:19:28.113Z,3414.38
2017-08-28T10:21:21.389Z,1344.38
2017-08-28T10:22:21.866Z,894.38
2017-08-28T10:23:22.345Z,866.25
2017-08-28T10:25:15.620Z,860.63
2017-08-28T10:26:16.105Z,860.63
2017-08-28T10:27:16.581Z,877.50
2017-08-28T10:28:21.878Z,911.25
2017-08-28T10:29:17.520Z,1198.13
2017-08-28T10:30:17.992Z,2739.38
2017-08-28T10:31:18.470Z,3532.50
2017-08-28T10:32:40.112Z,3633.75
2017-08-28T10:35:03.816Z,3678.75
2017-08-28T10:38:21.257Z,3493.13
2017-08-28T10:40:28.545Z,3645.00
2017-08-28T10:41:44.941Z,3639.38
2017-08-28T10:42:30.035Z,3583.13
2017-08-28T10:43:15.751Z,3543.75
2017-08-28T10:45:09.038Z,601.88
2017-08-28T10:46:37.250Z,562.50
2017-08-28T10:48:14.073Z,483.75
2017-08-28T10:50:51.705Z,489.38
2017-08-28T10:52:37.513Z,1867.50
2017-08-28T10:53:34.993Z,1951.88
2017-08-28T10:54:51.863Z,1440.00
2017-08-28T10:57:57.103Z,472.50
2017-08-28T10:59:04.368Z,450.00
2017-08-28T11:00:25.857Z,433.13
2017-08-28T11:02:34.404Z,438.75
2017-08-28T11:03:56.881Z,410.63
2017-08-28T11:04:33.562Z,393.75
2017-08-28T11:07:12.406Z,371.25
2017-08-28T11:08:14.392Z,371.25
2017-08-28T11:12:15.318Z,371.25
2017-08-28T11:13:51.576Z,371.25
2017-08-28T11:19:03.888Z,365.63
2017-08-28T11:23:02.816Z,399.38
2017-08-28T11:24:56.065Z,399.38
2017-08-28T11:27:13.578Z,399.38
2017-08-28T11:28:04.569Z,405.00
2017-08-28T11:28:50.223Z,388.13
2017-08-28T11:29:50.676Z,388.13
2017-08-28T11:30:51.121Z,393.75
2017-08-28T11:33:59.467Z,399.38
2017-08-28T11:35:17.950Z,804.38
2017-08-28T11:37:11.223Z,528.75
2017-08-28T11:38:11.666Z,2345.63
2017-08-28T11:39:12.178Z,3268.13
2017-08-28T11:40:12.553Z,1867.50
2017-08-28T11:42:31.594Z,534.38
2017-08-28T11:43:59.079Z,489.38
2017-08-28T11:44:59.588Z,483.75
2017-08-28T11:45:59.999Z,478.13
2017-08-28T11:47:53.224Z,455.63
2017-08-28T11:49:46.481Z,433.13
2017-08-28T11:51:39.720Z,382.50
2017-08-28T11:53:32.988Z,326.25
2017-08-28T11:54:33.452Z,315.00
2017-08-28T11:56:27.194Z,298.13
2017-08-28T11:58:20.422Z,281.25
2017-08-28T11:59:20.905Z,270.00
2017-08-28T12:00:21.336Z,264.38
2017-08-28T12:01:21.775Z,264.38
2017-08-28T12:08:36.914Z,286.88
2017-08-28T12:10:28.964Z,298.13
2017-08-28T12:14:26.562Z,292.50
2017-08-28T12:15:02.555Z,298.13
2017-08-28T12:15:56.223Z,303.75
2017-08-28T12:16:56.669Z,309.38
2017-08-28T12:17:57.122Z,309.38
2017-08-28T12:19:50.353Z,309.38
2017-08-28T12:20:50.807Z,309.38
2017-08-28T12:21:51.255Z,315.00
2017-08-28T12:22:51.700Z,320.63
2017-08-28T12:24:44.946Z,348.75
2017-08-28T12:25:45.402Z,348.75
2017-08-28T12:26:45.835Z,343.13
2017-08-28T12:27:46.300Z,348.75
2017-08-28T12:28:46.732Z,348.75
2017-08-28T12:29:47.183Z,365.63
2017-08-28T12:31:40.409Z,399.38
2017-08-28T12:32:40.862Z,416.25
2017-08-28T12:33:41.312Z,433.13
2017-08-28T12:34:41.754Z,444.38
2017-08-28T12:35:42.200Z,466.88
2017-08-28T12:36:42.650Z,495.00
2017-08-28T12:38:35.922Z,438.75
2017-08-28T12:39:43.134Z,427.50
2017-08-28T12:41:04.632Z,410.63
2017-08-28T12:41:37.228Z,410.63
2017-08-28T12:42:37.679Z,421.88
2017-08-28T12:43:38.127Z,421.88
2017-08-28T12:44:45.138Z,399.38
2017-08-28T12:45:39.020Z,410.63
2017-08-28T12:47:32.254Z,393.75
2017-08-28T12:48:32.708Z,376.88
2017-08-28T12:49:33.161Z,371.25
2017-08-28T12:50:33.603Z,371.25
2017-08-28T12:54:21.105Z,376.88
2017-08-28T13:00:54.972Z,298.13
2017-08-28T13:03:48.484Z,275.63
2017-08-28T13:08:09.326Z,253.13
2017-08-28T13:17:15.896Z,241.88
2017-08-28T13:28:55.927Z,275.63
2017-08-28T13:31:01.373Z,270.00
2017-08-28T13:36:22.090Z,236.25
2017-08-28T13:37:54.155Z,213.75
2017-08-28T13:39:22.598Z,208.13
2017-08-28T13:44:46.636Z,241.88
2017-08-28T13:45:35.837Z,241.88
2017-08-28T13:47:30.064Z,236.25
2017-08-28T13:48:45.320Z,236.25
2017-08-28T13:49:30.976Z,230.63
2017-08-28T13:51:24.221Z,208.13
2017-08-28T13:52:24.741Z,196.88
2017-08-28T13:54:25.557Z,191.25
2017-08-28T13:55:26.016Z,185.63
2017-08-28T13:57:19.329Z,180.00
2017-08-28T13:58:19.708Z,174.38
2017-08-28T13:59:20.156Z,168.75
2017-08-28T14:01:13.404Z,168.75
2017-08-28T14:02:13.845Z,168.75
2017-08-28T14:03:14.293Z,174.38
2017-08-28T14:05:07.542Z,180.00
2017-08-28T14:07:41.153Z,191.25
2017-08-28T14:09:34.375Z,191.25
2017-08-28T14:10:34.852Z,185.63
2017-08-28T14:13:08.400Z,185.63
2017-08-28T14:15:56.225Z,196.88
2017-08-28T14:18:56.633Z,202.50
2017-08-28T14:19:51.783Z,208.13
2017-08-28T14:20:17.283Z,219.38
2017-08-28T14:24:04.920Z,230.63
2017-08-28T14:24:45.018Z,230.63
2017-08-28T14:25:44.667Z,225.00
2017-08-28T14:27:38.917Z,225.00
2017-08-28T14:28:39.349Z,225.00
2017-08-28T14:29:39.834Z,225.00
2017-08-28T14:35:53.275Z,219.38
2017-08-28T14:36:21.826Z,208.13
2017-08-28T14:37:22.265Z,202.50
2017-08-28T14:38:22.712Z,185.63
2017-08-28T14:40:15.958Z,180.00
2017-08-28T14:41:16.417Z,180.00
2017-08-28T14:45:11.639Z,191.25
2017-08-28T14:47:43.614Z,191.25
2017-08-28T14:48:19.625Z,191.25
2017-08-28T14:52:35.728Z,236.25
2017-08-28T14:54:17.752Z,247.50
2017-08-28T14:56:33.640Z,213.75
2017-08-28T14:58:23.144Z,208.13
2017-08-28T15:02:19.556Z,208.13
2017-08-28T15:03:20.017Z,208.13
2017-08-28T15:04:20.523Z,191.25
2017-08-28T15:06:13.717Z,191.25
2017-08-28T15:07:14.173Z,191.25
2017-08-28T15:09:39.177Z,196.88
2017-08-28T15:10:07.870Z,180.00
2017-08-28T15:11:08.314Z,157.50
2017-08-28T15:12:08.762Z,151.88
2017-08-28T15:14:02.008Z,163.13
2017-08-28T15:15:17.246Z,174.38
2017-08-28T15:16:02.924Z,163.13
2017-08-28T15:17:56.221Z,168.75
2017-08-28T15:19:32.390Z,157.50
2017-08-28T15:20:49.925Z,168.75
2017-08-28T15:21:50.365Z,151.88
2017-08-28T15:22:50.817Z,168.75
2017-08-28T15:23:51.270Z,157.50
2017-08-28T15:25:45.484Z,151.88
2017-08-28T15:32:53.600Z,135.00
2017-08-28T15:33:54.052Z,135.00
2017-08-28T15:34:54.495Z,135.00
2017-08-28T15:35:54.939Z,135.00
2017-08-28T15:36:55.388Z,135.00
2017-08-28T15:38:48.624Z,168.75
2017-08-28T15:39:49.075Z,168.75
2017-08-28T15:40:49.524Z,168.75
2017-08-28T15:41:49.973Z,174.38
2017-08-28T15:43:43.212Z,180.00
2017-08-28T15:44:43.668Z,180.00
2017-08-28T15:45:44.107Z,185.63
2017-08-28T15:47:37.356Z,185.63
2017-08-28T15:48:37.805Z,180.00
2017-08-28T15:49:38.253Z,174.38
2017-08-28T15:51:32.482Z,174.38
2017-08-28T15:52:32.918Z,174.38
2017-08-28T15:53:33.370Z,185.63
2017-08-28T15:54:33.819Z,180.00
2017-08-28T15:56:27.094Z,168.75
2017-08-28T15:57:27.551Z,163.13
2017-08-28T15:59:20.788Z,191.25
2017-08-28T16:00:21.241Z,185.63
2017-08-28T16:01:21.688Z,163.13
2017-08-28T16:02:22.132Z,163.13
2017-08-28T16:03:22.579Z,157.50
2017-08-28T16:05:15.810Z,157.50
2017-08-28T16:06:16.264Z,163.13
2017-08-28T16:07:16.711Z,157.50
2017-08-28T16:08:17.157Z,157.50
2017-08-28T16:10:10.402Z,146.25
2017-08-28T16:11:10.860Z,140.63
2017-08-28T16:12:11.311Z,140.63
2017-08-28T16:14:04.557Z,135.00
2017-08-28T16:15:57.789Z,135.00
2017-08-28T16:16:58.240Z,135.00
2017-08-28T16:17:58.686Z,135.00
2017-08-28T16:18:59.137Z,129.38
2017-08-28T16:20:20.748Z,123.75
2017-08-28T16:21:14.541Z,123.75
2017-08-28T16:22:00.473Z,118.13
2017-08-28T16:23:53.720Z,112.50
2017-08-28T16:24:54.175Z,112.50
2017-08-28T16:25:54.630Z,112.50
2017-08-28T16:26:55.064Z,106.88
2017-08-28T16:27:55.512Z,106.88
2017-08-28T16:29:48.753Z,106.88
2017-08-28T16:30:49.205Z,106.88
2017-08-28T16:31:49.654Z,112.50
2017-08-28T16:32:50.104Z,112.50
2017-08-28T16:33:50.543Z,112.50
2017-08-28T16:34:50.989Z,106.88
2017-08-28T16:36:45.237Z,112.50
2017-08-28T16:38:38.450Z,106.88
2017-08-28T16:39:38.906Z,106.88
2017-08-28T16:40:39.350Z,118.13
2017-08-28T16:41:39.788Z,123.75
2017-08-28T16:48:13.968Z,33.75
2017-08-28T16:49:14.418Z,33.75
2017-08-28T16:52:30.381Z,33.75
2017-08-28T16:53:30.808Z,33.75
2017-08-28T16:55:28.181Z,33.75
2017-08-28T16:56:28.646Z,33.75
2017-08-28T16:58:27.156Z,28.13
2017-08-28T16:59:27.611Z,28.13
2017-08-28T17:00:28.033Z,28.13
2017-08-28T17:01:28.472Z,28.13
2017-08-28T17:02:28.907Z,28.13
2017-08-28T17:04:34.381Z,28.13
2017-08-28T17:05:34.891Z,22.50
2017-08-28T17:06:35.259Z,22.50
2017-08-28T17:07:35.697Z,22.50
2017-08-28T17:08:36.140Z,22.50
2017-08-28T17:09:36.577Z,67.50
2017-08-28T17:10:37.017Z,67.50
2017-08-28T17:11:37.486Z,61.88
2017-08-28T17:12:37.904Z,61.88
2017-08-28T17:13:31.940Z,61.88
2017-08-28T17:14:32.336Z,61.88
2017-08-28T17:22:00.263Z,56.25
2017-08-28T17:22:36.458Z,56.25
2017-08-28T17:34:13.049Z,33.75
2017-08-28T17:35:28.315Z,33.75
2017-08-28T17:36:13.976Z,33.75
2017-08-28T17:37:14.468Z,28.13
2017-08-28T17:38:14.837Z,28.13
2017-08-28T17:39:15.279Z,28.13
2017-08-28T17:40:15.722Z,28.13
2017-08-28T17:41:16.160Z,28.13
2017-08-28T17:42:31.318Z,22.50
2017-08-28T17:43:17.055Z,22.50
2017-08-28T17:44:17.506Z,22.50
2017-08-28T17:45:17.944Z,22.50
2017-08-28T17:46:18.394Z,22.50
2017-08-28T17:47:33.972Z,22.50
2017-08-28T17:48:19.279Z,16.88
2017-08-28T17:49:19.727Z,16.88
2017-08-28T17:50:20.169Z,16.88
2017-08-28T17:51:20.614Z,16.88
2017-08-28T17:52:21.064Z,16.88
2017-08-28T17:53:21.551Z,11.25
2017-08-28T17:54:21.956Z,11.25
2017-08-28T17:55:22.393Z,11.25
2017-08-28T17:56:24.823Z,11.25
2017-08-28T17:57:23.282Z,11.25
2017-08-28T17:58:23.733Z,11.25
2017-08-28T17:59:24.180Z,5.63
2017-08-28T18:00:24.622Z,5.63